createdAt,value
2018-09-03T00:00:21.105Z,2.03
2018-09-03T00:03:24.229Z,2.27
2018-09-03T00:06:27.448Z,2.73
2018-09-03T00:09:46.390Z,1.90
2018-09-03T00:12:49.621Z,2.10
2018-09-03T00:15:52.792Z,2.40
2018-09-03T00:18:55.869Z,2.03
2018-09-03T00:21:59.048Z,2.90
2018-09-03T00:25:02.315Z,2.13
2018-09-03T00:28:05.405Z,2.60
2018-09-03T00:31:14.349Z,2.77
2018-09-03T00:34:23.581Z,2.33
2018-09-03T00:37:32.418Z,2.20
2018-09-03T00:40:40.944Z,3.00
2018-09-03T00:43:51.782Z,1.97
2018-09-03T00:47:04.390Z,2.00
2018-09-03T00:50:07.489Z,2.20
2018-09-03T00:53:10.387Z,2.90
2018-09-03T00:56:13.528Z,3.73
2018-09-03T00:59:16.612Z,3.00
2018-09-03T01:02:19.763Z,2.40
2018-09-03T01:05:22.965Z,2.60
2018-09-03T01:08:26.159Z,2.90
2018-09-03T01:11:29.134Z,2.27
2018-09-03T01:14:32.048Z,2.40
2018-09-03T01:17:34.989Z,2.70
2018-09-03T01:20:37.910Z,3.10
2018-09-03T01:23:40.807Z,2.60
2018-09-03T01:26:43.744Z,2.30
2018-09-03T01:29:53.660Z,2.50
2018-09-03T01:32:56.848Z,2.50
2018-09-03T01:35:59.804Z,2.43
2018-09-03T01:39:04.045Z,2.77
2018-09-03T01:42:08.044Z,3.17
2018-09-03T01:45:11.001Z,2.67
2018-09-03T01:48:14.003Z,2.47
2018-09-03T01:51:17.297Z,2.40
2018-09-03T01:54:20.307Z,2.00
2018-09-03T01:57:23.464Z,3.17
2018-09-03T02:00:26.514Z,2.90
2018-09-03T02:03:29.529Z,2.40
2018-09-03T02:06:32.497Z,2.27
2018-09-03T02:09:35.403Z,2.40
2018-09-03T02:12:38.373Z,2.47
2018-09-03T02:15:41.271Z,3.53
2018-09-03T02:18:44.169Z,2.07
2018-09-03T02:21:47.253Z,3.00
2018-09-03T02:24:50.297Z,2.03
2018-09-03T02:27:53.336Z,2.30
2018-09-03T02:30:56.375Z,2.17
2018-09-03T02:33:59.299Z,3.10
2018-09-03T02:37:02.176Z,2.13
2018-09-03T02:40:05.313Z,2.40
2018-09-03T02:43:08.264Z,2.40
2018-09-03T02:46:11.214Z,3.47
2018-09-03T02:49:14.231Z,1.97
2018-09-03T02:52:17.390Z,3.07
2018-09-03T02:55:20.632Z,2.07
2018-09-03T02:58:23.771Z,2.60
2018-09-03T03:01:27.259Z,2.40
2018-09-03T03:04:30.873Z,2.63
2018-09-03T03:07:33.861Z,2.20
2018-09-03T03:10:36.771Z,5.30
2018-09-03T03:13:39.751Z,2.63
2018-09-03T03:16:42.698Z,2.37
2018-09-03T03:19:45.719Z,2.17
2018-09-03T03:22:48.950Z,2.40
2018-09-03T03:25:51.952Z,2.47
2018-09-03T03:28:55.009Z,2.23
2018-09-03T03:31:57.976Z,2.50
2018-09-03T03:35:00.950Z,2.23
2018-09-03T03:38:04.038Z,2.00
2018-09-03T03:41:06.992Z,2.33
2018-09-03T03:44:10.359Z,2.93
2018-09-03T03:47:14.412Z,3.37
2018-09-03T03:50:24.837Z,2.50
2018-09-03T03:53:27.770Z,2.83
2018-09-03T03:56:30.802Z,2.33
2018-09-03T03:59:33.760Z,2.23
2018-09-03T04:02:36.694Z,2.80
2018-09-03T04:05:39.611Z,2.33
2018-09-03T04:08:42.547Z,2.10
2018-09-03T04:11:45.551Z,2.07
2018-09-03T04:14:48.596Z,2.67
2018-09-03T04:17:51.662Z,3.33
2018-09-03T04:20:54.838Z,2.40
2018-09-03T04:23:57.867Z,2.30
2018-09-03T04:27:00.832Z,2.43
2018-09-03T04:30:03.797Z,2.20
2018-09-03T04:33:13.511Z,1.80
2018-09-03T04:36:16.825Z,2.07
2018-09-03T04:39:19.936Z,2.70
2018-09-03T04:42:23.156Z,3.17
2018-09-03T04:45:26.302Z,1.73
2018-09-03T04:48:29.390Z,2.23
2018-09-03T04:51:32.310Z,3.00
2018-09-03T04:54:35.354Z,2.30
2018-09-03T04:57:38.292Z,2.60
2018-09-03T05:00:41.210Z,2.70
2018-09-03T05:03:44.190Z,2.43
2018-09-03T05:06:47.347Z,1.97
2018-09-03T05:09:50.507Z,2.10
2018-09-03T05:12:53.553Z,2.70
2018-09-03T05:15:56.663Z,3.10
2018-09-03T05:18:59.654Z,2.47
2018-09-03T05:22:02.626Z,2.30
2018-09-03T05:25:06.160Z,8.07
2018-09-03T05:28:09.145Z,3.30
2018-09-03T05:31:12.264Z,4.33
2018-09-03T05:34:15.323Z,2.97
2018-09-03T05:37:18.582Z,2.87
2018-09-03T05:40:21.758Z,2.60
2018-09-03T05:43:24.915Z,2.70
2018-09-03T05:46:28.120Z,2.93
2018-09-03T05:49:31.104Z,2.80
2018-09-03T05:52:34.100Z,3.00
2018-09-03T05:55:37.075Z,2.23
2018-09-03T05:58:40.031Z,1.93
2018-09-03T06:01:42.973Z,2.40
2018-09-03T06:04:46.122Z,2.47
2018-09-03T06:07:49.245Z,2.53
2018-09-03T06:10:52.325Z,2.80
2018-09-03T06:13:55.283Z,2.10
2018-09-03T06:16:58.336Z,3.13
2018-09-03T06:20:01.323Z,2.47
2018-09-03T06:23:04.397Z,2.10
2018-09-03T06:26:07.409Z,2.10
2018-09-03T06:29:10.433Z,2.30
2018-09-03T06:32:13.378Z,2.53
2018-09-03T06:35:16.515Z,2.30
2018-09-03T06:38:19.523Z,2.67
2018-09-03T06:41:22.641Z,3.27
2018-09-03T06:44:25.728Z,2.60
2018-09-03T06:47:28.910Z,2.40
2018-09-03T06:50:31.955Z,2.63
2018-09-03T06:53:35.381Z,1.77
2018-09-03T06:56:38.397Z,2.80
2018-09-03T06:59:41.568Z,2.10
2018-09-03T07:02:44.512Z,2.73
2018-09-03T07:05:47.630Z,2.10
2018-09-03T07:08:50.697Z,1.83
2018-09-03T07:11:53.872Z,2.50
2018-09-03T07:14:56.980Z,2.57
2018-09-03T07:18:00.101Z,3.00
2018-09-03T07:21:03.258Z,2.50
2018-09-03T07:24:06.544Z,2.20
2018-09-03T07:27:09.723Z,2.33
2018-09-03T07:30:12.768Z,3.27
2018-09-03T07:33:22.594Z,2.50
2018-09-03T07:36:25.659Z,2.33
2018-09-03T07:39:28.884Z,2.90
2018-09-03T07:42:32.038Z,2.87
2018-09-03T07:45:35.324Z,3.37
2018-09-03T07:48:38.387Z,3.53
2018-09-03T07:51:41.657Z,3.80
2018-09-03T07:54:44.802Z,3.13
2018-09-03T07:57:47.954Z,2.63
2018-09-03T08:00:50.978Z,3.10
2018-09-03T08:03:54.094Z,3.20
2018-09-03T08:06:57.202Z,3.87
2018-09-03T08:10:00.303Z,3.67
2018-09-03T08:13:03.592Z,4.00
2018-09-03T08:16:06.775Z,3.83
2018-09-03T08:19:09.893Z,4.13
2018-09-03T08:22:12.917Z,4.63
2018-09-03T08:25:15.929Z,4.53
2018-09-03T08:28:19.200Z,4.40
2018-09-03T08:31:22.170Z,4.83
2018-09-03T08:34:25.229Z,6.10
2018-09-03T08:37:28.268Z,5.07
2018-09-03T08:40:31.186Z,5.80
2018-09-03T08:43:34.358Z,3.90
2018-09-03T08:46:37.406Z,6.20
2018-09-03T08:49:40.349Z,4.83
2018-09-03T08:52:43.268Z,5.20
2018-09-03T08:55:46.351Z,4.43
2018-09-03T08:58:49.475Z,4.90
2018-09-03T09:01:52.470Z,5.10
2018-09-03T09:04:55.575Z,4.83
2018-09-03T09:07:58.642Z,4.67
2018-09-03T09:11:01.711Z,4.10
2018-09-03T09:14:04.672Z,5.80
2018-09-03T09:17:08.319Z,4.03
2018-09-03T09:20:11.367Z,4.30
2018-09-03T09:23:14.823Z,4.67
2018-09-03T09:26:18.037Z,4.13
2018-09-03T09:29:21.145Z,4.17
2018-09-03T09:32:24.185Z,4.40
2018-09-03T09:35:27.257Z,3.47
2018-09-03T09:38:30.397Z,3.87
2018-09-03T09:41:33.566Z,3.80
2018-09-03T09:44:37.534Z,3.80
2018-09-03T09:47:40.598Z,3.80
2018-09-03T09:50:43.755Z,4.10
2018-09-03T09:53:46.786Z,3.47
2018-09-03T09:56:49.858Z,4.80
2018-09-03T09:59:53.064Z,4.83
2018-09-03T10:02:56.161Z,4.10
2018-09-03T10:05:59.387Z,4.47
2018-09-03T10:09:03.111Z,5.30
2018-09-03T10:12:06.168Z,5.73
2018-09-03T10:15:09.283Z,3.87
2018-09-03T10:18:12.271Z,4.40
2018-09-03T10:21:15.387Z,4.10
2018-09-03T10:24:18.418Z,3.80
2018-09-03T10:27:21.661Z,4.27
2018-09-03T10:30:24.709Z,3.43
2018-09-03T10:33:27.786Z,4.50
2018-09-03T10:36:30.915Z,4.10
2018-09-03T10:39:33.966Z,4.23
2018-09-03T10:42:36.978Z,4.30
2018-09-03T10:45:43.962Z,4.50
2018-09-03T10:48:46.986Z,4.10
2018-09-03T10:51:50.061Z,4.00
2018-09-03T10:54:53.107Z,5.50
2018-09-03T10:57:56.146Z,4.63
2018-09-03T11:00:59.194Z,4.40
2018-09-03T11:04:02.240Z,5.33
2018-09-03T11:07:05.386Z,4.33
2018-09-03T11:10:08.418Z,6.17
2018-09-03T11:13:11.469Z,4.80
2018-09-03T11:16:14.380Z,5.23
2018-09-03T11:19:18.921Z,5.00
2018-09-03T11:22:22.565Z,6.63
2018-09-03T11:25:26.894Z,5.13
2018-09-03T11:28:30.037Z,6.17
2018-09-03T11:31:33.092Z,4.53
2018-09-03T11:34:36.060Z,4.83
2018-09-03T11:37:46.145Z,8.40
2018-09-03T11:40:49.236Z,6.67
2018-09-03T11:43:52.328Z,5.43
2018-09-03T11:46:55.379Z,7.03
2018-09-03T11:49:58.513Z,6.10
2018-09-03T11:53:01.611Z,4.33
2018-09-03T11:56:04.698Z,6.23
2018-09-03T11:59:07.773Z,6.97
2018-09-03T12:02:10.943Z,6.00
2018-09-03T12:05:13.862Z,5.77
2018-09-03T12:08:16.997Z,5.40
2018-09-03T12:11:20.122Z,5.80
2018-09-03T12:14:26.649Z,5.27
2018-09-03T12:17:29.694Z,5.40
2018-09-03T12:20:32.637Z,6.70
2018-09-03T12:23:35.606Z,5.40
2018-09-03T12:26:38.635Z,7.57
2018-09-03T12:29:41.618Z,9.10
2018-09-03T12:32:44.629Z,7.83
2018-09-03T12:35:47.673Z,7.27
2018-09-03T12:38:50.750Z,5.60
2018-09-03T12:41:53.802Z,7.60
2018-09-03T12:44:56.866Z,7.07
2018-09-03T12:48:00.011Z,8.10
2018-09-03T12:51:03.785Z,7.53
2018-09-03T12:54:06.872Z,9.57
2018-09-03T12:57:09.927Z,7.47
2018-09-03T13:00:17.519Z,6.87
2018-09-03T13:03:20.594Z,7.23
2018-09-03T13:06:23.726Z,6.70
2018-09-03T13:09:26.241Z,7.57
2018-09-03T13:12:29.234Z,7.00
2018-09-03T13:15:32.143Z,8.47
2018-09-03T13:18:35.420Z,9.67
2018-09-03T13:21:38.423Z,9.50
2018-09-03T13:24:41.409Z,7.37
2018-09-03T13:27:44.577Z,2.67
2018-09-03T13:30:47.704Z,7.80
2018-09-03T13:33:50.854Z,5.20
2018-09-03T13:36:54.221Z,5.27
2018-09-03T13:39:57.933Z,5.17
2018-09-03T13:43:01.417Z,3.70
2018-09-03T13:46:04.754Z,3.90
2018-09-03T13:49:07.773Z,4.60
2018-09-03T13:52:10.936Z,5.40
2018-09-03T13:55:15.464Z,5.50
2018-09-03T13:58:18.938Z,9.87
2018-09-03T14:02:25.776Z,8.80
2018-09-03T14:05:28.959Z,9.47
2018-09-03T14:08:32.117Z,7.67
2018-09-03T14:11:35.286Z,8.03
2018-09-03T14:14:38.484Z,11.77
2018-09-03T14:17:41.861Z,10.17
2018-09-03T14:20:45.764Z,10.63
2018-09-03T14:23:49.161Z,8.97
2018-09-03T14:26:52.398Z,9.30
2018-09-03T14:29:55.896Z,10.30
2018-09-03T14:32:59.218Z,9.37
2018-09-03T14:36:02.494Z,9.77
2018-09-03T14:39:09.342Z,11.50
2018-09-03T14:42:12.509Z,10.90
2018-09-03T14:45:18.300Z,9.40
2018-09-03T14:48:21.714Z,9.50
2018-09-03T14:51:25.626Z,8.80
2018-09-03T14:54:29.764Z,11.87
2018-09-03T14:57:33.276Z,13.63
2018-09-03T15:00:36.502Z,9.77
2018-09-03T15:03:39.547Z,8.60
2018-09-03T15:06:42.766Z,9.73
2018-09-03T15:09:46.173Z,10.17
2018-09-03T15:12:49.419Z,9.10
2018-09-03T15:15:52.685Z,9.60
2018-09-03T15:18:56.035Z,9.00
2018-09-03T15:21:59.750Z,8.00
2018-09-03T15:25:03.008Z,9.00
2018-09-03T15:28:06.333Z,8.20
2018-09-03T15:31:09.876Z,8.43
2018-09-03T15:34:13.112Z,8.77
2018-09-03T15:37:16.370Z,9.50
2018-09-03T15:40:19.367Z,9.70
2018-09-03T15:43:22.638Z,9.17
2018-09-03T15:46:25.718Z,11.13
2018-09-03T15:49:29.009Z,13.73
2018-09-03T15:52:32.332Z,11.30
2018-09-03T15:55:35.332Z,12.00
2018-09-03T15:58:38.517Z,9.70
2018-09-03T16:01:41.462Z,11.53
2018-09-03T16:04:44.350Z,11.70
2018-09-03T16:07:47.252Z,12.00
2018-09-03T16:10:50.212Z,11.63
2018-09-03T16:13:53.309Z,11.23
2018-09-03T16:16:56.469Z,11.50
2018-09-03T16:20:00.097Z,10.00
2018-09-03T16:23:02.949Z,11.90
2018-09-03T16:26:05.905Z,9.13
2018-09-03T16:29:08.757Z,10.17
2018-09-03T16:32:11.732Z,9.20
2018-09-03T16:35:16.236Z,9.97
2018-09-03T16:38:20.002Z,8.60
2018-09-03T16:41:24.174Z,9.93
2018-09-03T16:44:28.087Z,8.90
2018-09-03T16:47:32.004Z,9.40
2018-09-03T16:50:34.974Z,8.20
2018-09-03T16:53:37.990Z,8.73
2018-09-03T16:56:41.028Z,8.77
2018-09-03T16:59:44.195Z,9.23
2018-09-03T17:02:47.609Z,8.57
2018-09-03T17:05:51.007Z,9.07
2018-09-03T17:08:54.212Z,6.90
2018-09-03T17:11:57.590Z,23.30
2018-09-03T17:15:00.699Z,10.33
2018-09-03T17:18:04.043Z,8.07
2018-09-03T17:21:07.598Z,9.03
2018-09-03T17:24:10.724Z,11.00
2018-09-03T17:27:13.823Z,10.10
2018-09-03T17:30:16.973Z,9.80
2018-09-03T17:33:20.115Z,8.80
2018-09-03T17:36:23.293Z,7.77
2018-09-03T17:39:26.247Z,9.70
2018-09-03T17:42:29.263Z,8.43
2018-09-03T17:45:32.282Z,8.80
2018-09-03T17:48:35.612Z,9.37
2018-09-03T17:51:39.066Z,8.57
2018-09-03T17:54:42.073Z,8.87
2018-09-03T17:57:45.032Z,7.63
2018-09-03T18:00:50.118Z,9.00
2018-09-03T18:03:53.643Z,9.60
2018-09-03T18:07:02.934Z,9.87
2018-09-03T18:11:15.613Z,9.57
